createdAt,value
2023-05-01T00:01:08.249Z,66.89
2023-05-01T00:03:36.818Z,66.58
2023-05-01T00:06:05.794Z,66.58
2023-05-01T00:08:34.682Z,66.68
2023-05-01T00:11:09.745Z,66.92
2023-05-01T00:13:40.322Z,67.29
2023-05-01T00:16:09.788Z,66.93
2023-05-01T00:18:38.897Z,66.79
2023-05-01T00:21:21.554Z,66.76
2023-05-01T00:23:50.342Z,67.33
2023-05-01T00:26:18.810Z,67.23
2023-05-01T00:28:50.903Z,66.99
2023-05-01T00:31:21.286Z,67.60
2023-05-01T00:33:50.265Z,67.34
2023-05-01T00:36:18.901Z,66.94
2023-05-01T00:38:47.582Z,67.23
2023-05-01T00:41:16.559Z,67.47
2023-05-01T00:43:45.364Z,67.77
2023-05-01T00:46:15.237Z,67.86
2023-05-01T00:48:43.703Z,68.26
2023-05-01T00:51:13.802Z,67.43
2023-05-01T00:53:42.501Z,68.57
2023-05-01T00:56:12.056Z,68.54
2023-05-01T00:58:41.527Z,69.13
2023-05-01T01:01:10.086Z,69.13
2023-05-01T01:03:39.884Z,69.89
2023-05-01T01:06:10.562Z,69.55
2023-05-01T01:08:41.985Z,69.80
2023-05-01T01:11:15.284Z,70.67
2023-05-01T01:13:47.533Z,70.96
2023-05-01T01:16:21.279Z,71.06
2023-05-01T01:18:57.459Z,71.17
2023-05-01T01:21:33.032Z,71.61
2023-05-01T01:24:16.468Z,71.69
2023-05-01T01:27:02.354Z,72.28
2023-05-01T01:29:44.973Z,71.90
2023-05-01T01:32:28.596Z,72.27
2023-05-01T01:35:02.472Z,72.24
2023-05-01T01:37:35.224Z,71.86
2023-05-01T01:40:09.401Z,72.49
2023-05-01T01:42:40.079Z,72.50
2023-05-01T01:45:12.570Z,72.46
2023-05-01T01:47:42.611Z,72.94
2023-05-01T01:50:13.982Z,72.61
2023-05-01T01:52:46.271Z,72.98
2023-05-01T01:55:16.265Z,72.69
2023-05-01T01:57:46.886Z,72.78
2023-05-01T02:00:16.585Z,72.71
2023-05-01T02:02:45.843Z,72.91
2023-05-01T02:05:17.406Z,73.26
2023-05-01T02:07:48.143Z,72.08
2023-05-01T02:10:17.988Z,72.37
2023-05-01T02:12:48.117Z,71.81
2023-05-01T02:15:18.324Z,72.64
2023-05-01T02:17:47.171Z,71.93
2023-05-01T02:20:17.231Z,71.28
2023-05-01T02:22:47.356Z,71.09
2023-05-01T02:25:16.804Z,71.03
2023-05-01T02:27:48.042Z,70.80
2023-05-01T02:30:17.185Z,70.71
2023-05-01T02:32:45.674Z,69.73
2023-05-01T02:35:14.009Z,69.91
2023-05-01T02:37:44.302Z,69.91
2023-05-01T02:40:14.972Z,69.60
2023-05-01T02:42:43.653Z,69.50
2023-05-01T02:45:19.149Z,69.02
2023-05-01T02:47:49.923Z,69.37
2023-05-01T02:50:18.907Z,69.22
2023-05-01T02:52:49.217Z,68.94
2023-05-01T02:55:17.836Z,68.21
2023-05-01T02:57:46.400Z,68.17
2023-05-01T03:00:15.171Z,68.59
2023-05-01T03:02:43.476Z,68.57
2023-05-01T03:05:12.388Z,68.12
2023-05-01T03:07:40.971Z,68.45
2023-05-01T03:10:11.914Z,68.63
2023-05-01T03:12:40.352Z,68.10
2023-05-01T03:15:09.518Z,68.79
2023-05-01T03:17:37.921Z,68.65
2023-05-01T03:20:07.226Z,68.84
2023-05-01T03:22:36.097Z,68.17
2023-05-01T03:25:05.272Z,68.14
2023-05-01T03:27:34.977Z,68.69
2023-05-01T03:30:04.543Z,69.49
2023-05-01T03:32:32.786Z,68.91
2023-05-01T03:35:01.542Z,68.82
2023-05-01T03:37:30.255Z,69.31
2023-05-01T03:39:58.809Z,68.88
2023-05-01T03:42:27.493Z,68.96
2023-05-01T03:44:57.211Z,68.57
2023-05-01T03:47:25.549Z,68.56
2023-05-01T03:49:54.129Z,68.38
2023-05-01T03:52:22.940Z,68.90
2023-05-01T03:54:51.636Z,69.13
2023-05-01T03:57:20.772Z,68.80
2023-05-01T03:59:49.190Z,69.16
2023-05-01T04:02:19.102Z,69.37
2023-05-01T04:04:47.595Z,69.50
2023-05-01T04:07:16.182Z,69.27
2023-05-01T04:09:44.810Z,68.90
2023-05-01T04:12:13.309Z,69.40
2023-05-01T04:14:43.215Z,69.73
2023-05-01T04:17:11.674Z,69.82
2023-05-01T04:19:41.894Z,69.34
2023-05-01T04:22:10.415Z,69.63
2023-05-01T04:24:38.698Z,70.06
2023-05-01T04:27:07.270Z,69.98
2023-05-01T04:29:35.730Z,69.79
2023-05-01T04:32:04.372Z,69.97
2023-05-01T04:35:09.776Z,70.29
2023-05-01T04:37:38.152Z,70.17
2023-05-01T04:40:08.628Z,70.09
2023-05-01T04:42:39.328Z,69.58
2023-05-01T04:45:08.003Z,69.64
2023-05-01T04:47:36.461Z,69.94
2023-05-01T04:50:05.036Z,69.93
2023-05-01T04:52:35.682Z,69.48
2023-05-01T04:55:04.779Z,70.03
2023-05-01T04:57:33.029Z,70.05
2023-05-01T05:00:01.572Z,69.72
2023-05-01T05:02:30.967Z,69.55
2023-05-01T05:04:59.736Z,69.81
2023-05-01T05:07:28.346Z,69.29
2023-05-01T05:09:58.309Z,69.12
2023-05-01T05:12:26.827Z,68.47
2023-05-01T05:14:55.205Z,68.42
2023-05-01T05:17:23.613Z,68.38
2023-05-01T05:19:52.040Z,68.33
2023-05-01T05:22:20.532Z,68.18
2023-05-01T05:25:14.784Z,68.16
2023-05-01T05:27:44.933Z,68.02
2023-05-01T05:30:16.665Z,67.77
2023-05-01T05:32:45.538Z,66.90
2023-05-01T05:35:14.181Z,67.22
2023-05-01T05:37:43.989Z,67.34
2023-05-01T05:40:43.133Z,66.99
2023-05-01T05:43:12.902Z,66.54
2023-05-01T05:45:41.236Z,66.18
2023-05-01T05:48:09.600Z,66.38
2023-05-01T05:50:38.498Z,66.32
2023-05-01T05:53:07.041Z,66.35
2023-05-01T05:55:35.532Z,66.12
2023-05-01T05:58:03.970Z,66.13
2023-05-01T06:00:33.776Z,65.07
2023-05-01T06:03:02.645Z,64.13
2023-05-01T06:05:31.296Z,63.91
2023-05-01T06:07:59.655Z,63.44
2023-05-01T06:10:28.100Z,63.40
2023-05-01T06:13:03.625Z,63.09
2023-05-01T06:15:43.186Z,62.82
2023-05-01T06:18:12.411Z,61.85
2023-05-01T06:20:40.743Z,62.71
2023-05-01T06:23:09.977Z,61.58
2023-05-01T06:25:38.785Z,62.36
2023-05-01T06:28:07.443Z,63.38
2023-05-01T06:30:35.944Z,63.50
2023-05-01T06:33:05.898Z,64.15
2023-05-01T06:35:34.334Z,64.98
2023-05-01T06:38:03.580Z,66.05
2023-05-01T06:40:34.851Z,66.15
2023-05-01T06:43:03.647Z,65.44
2023-05-01T06:45:32.629Z,65.00
2023-05-01T06:48:00.966Z,64.70
2023-05-01T06:50:30.624Z,64.18
2023-05-01T06:53:00.877Z,64.82
2023-05-01T06:55:32.393Z,63.87
2023-05-01T06:58:06.956Z,62.90
2023-05-01T07:00:41.099Z,62.49
2023-05-01T07:03:10.042Z,62.56
2023-05-01T07:05:41.259Z,62.14
2023-05-01T07:08:10.539Z,60.80
2023-05-01T07:10:42.479Z,60.47
2023-05-01T07:13:10.998Z,59.69
2023-05-01T07:15:39.592Z,58.88
2023-05-01T07:18:08.126Z,57.65
2023-05-01T07:20:36.925Z,56.60
2023-05-01T07:23:07.523Z,55.48
2023-05-01T07:25:37.774Z,55.32
2023-05-01T07:28:08.009Z,54.34
2023-05-01T07:30:37.526Z,53.24
2023-05-01T07:33:30.132Z,50.01
2023-05-01T07:35:58.619Z,50.58
2023-05-01T07:38:28.707Z,49.72
2023-05-01T07:40:57.183Z,49.61
2023-05-01T07:43:25.608Z,49.60
2023-05-01T07:45:58.782Z,50.53
2023-05-01T07:48:27.802Z,50.35
2023-05-01T07:50:56.613Z,49.76
2023-05-01T07:53:25.104Z,47.79
2023-05-01T07:55:55.025Z,46.78
2023-05-01T07:58:23.611Z,45.17
2023-05-01T08:00:52.258Z,42.74
2023-05-01T08:03:20.723Z,42.29
2023-05-01T08:05:49.190Z,41.69
2023-05-01T08:08:20.683Z,40.73
2023-05-01T08:10:49.711Z,40.27
2023-05-01T08:13:20.303Z,40.63
2023-05-01T08:15:48.808Z,41.60
2023-05-01T08:18:20.956Z,40.74
2023-05-01T08:20:50.395Z,38.29
2023-05-01T08:23:18.900Z,37.11
2023-05-01T08:25:51.132Z,35.36
2023-05-01T08:28:21.696Z,35.58
2023-05-01T08:30:50.927Z,35.90
2023-05-01T08:33:19.854Z,36.41
2023-05-01T08:35:48.420Z,36.59
2023-05-01T08:38:17.025Z,35.05
2023-05-01T08:40:48.616Z,33.72
2023-05-01T08:43:17.482Z,31.93
2023-05-01T08:45:48.297Z,30.00
2023-05-01T08:48:18.645Z,27.41
2023-05-01T08:50:47.589Z,26.88
2023-05-01T08:53:17.817Z,25.73
2023-05-01T08:55:47.562Z,25.34
2023-05-01T08:58:18.553Z,24.72
2023-05-01T09:00:48.862Z,24.41
2023-05-01T09:03:17.854Z,23.79
2023-05-01T09:05:47.029Z,23.28
2023-05-01T09:08:15.656Z,23.13
2023-05-01T09:10:46.678Z,22.59
2023-05-01T09:13:15.111Z,23.22
2023-05-01T09:15:44.454Z,24.70
2023-05-01T09:18:14.939Z,23.92
2023-05-01T09:20:43.553Z,23.31
2023-05-01T09:23:12.865Z,22.79
2023-05-01T09:25:41.372Z,22.27
2023-05-01T09:28:09.943Z,20.33
2023-05-01T09:30:39.640Z,20.01
2023-05-01T09:33:09.039Z,19.74
2023-05-01T09:35:52.101Z,19.01
2023-05-01T09:38:21.659Z,17.01
2023-05-01T09:40:50.123Z,18.03
2023-05-01T09:43:25.715Z,17.85
2023-05-01T09:46:04.975Z,18.63
2023-05-01T09:48:35.655Z,20.28
2023-05-01T09:51:19.798Z,21.24
2023-05-01T09:53:50.264Z,20.46
2023-05-01T09:56:19.046Z,20.70
2023-05-01T09:58:47.981Z,20.10
2023-05-01T10:01:17.498Z,18.42
2023-05-01T10:03:47.249Z,17.40
2023-05-01T10:06:28.660Z,17.18
2023-05-01T10:08:59.028Z,15.37
2023-05-01T10:11:27.918Z,14.80
2023-05-01T10:14:07.534Z,15.62
2023-05-01T10:16:37.517Z,16.15
2023-05-01T10:19:06.860Z,17.06
2023-05-01T10:21:36.372Z,15.99
2023-05-01T10:24:08.326Z,15.85
2023-05-01T10:26:37.328Z,15.12
2023-05-01T10:29:06.142Z,15.53
2023-05-01T10:31:35.904Z,14.31
2023-05-01T10:34:04.786Z,15.34
2023-05-01T10:36:35.655Z,17.29
2023-05-01T10:39:06.139Z,17.69
2023-05-01T10:42:02.090Z,18.51
2023-05-01T10:44:30.842Z,20.02
2023-05-01T10:46:59.242Z,20.78
2023-05-01T10:49:50.805Z,20.95
2023-05-01T10:52:19.697Z,21.21
2023-05-01T10:54:49.684Z,20.22
2023-05-01T10:57:38.274Z,21.07
2023-05-01T11:00:16.380Z,22.45
2023-05-01T11:02:44.914Z,23.85
2023-05-01T11:05:13.366Z,25.42
2023-05-01T11:07:42.453Z,26.10
2023-05-01T11:10:26.099Z,25.93
2023-05-01T11:12:56.964Z,26.38
2023-05-01T11:15:29.228Z,24.75
2023-05-01T11:17:58.603Z,26.31
2023-05-01T11:20:45.522Z,25.36
2023-05-01T11:23:18.301Z,25.37
2023-05-01T11:25:48.342Z,26.26
2023-05-01T11:28:23.082Z,23.98
2023-05-01T11:30:52.040Z,23.58
2023-05-01T11:33:26.108Z,22.05
2023-05-01T11:35:58.668Z,22.14
2023-05-01T11:38:27.306Z,21.95
2023-05-01T11:40:57.334Z,22.55
2023-05-01T11:43:27.797Z,23.73
2023-05-01T11:46:02.268Z,24.25
2023-05-01T11:48:32.255Z,25.84
2023-05-01T11:51:00.766Z,26.04
2023-05-01T11:53:29.706Z,24.77
2023-05-01T11:55:59.751Z,23.20
2023-05-01T11:58:33.892Z,20.63
2023-05-01T12:01:03.267Z,20.76
2023-05-01T12:03:41.530Z,22.75
2023-05-01T12:06:11.135Z,25.70
2023-05-01T12:08:43.444Z,23.66
2023-05-01T12:11:12.474Z,23.90
2023-05-01T12:13:42.860Z,23.39
2023-05-01T12:16:11.499Z,20.72
2023-05-01T12:18:41.200Z,20.39
2023-05-01T12:21:16.031Z,21.20
2023-05-01T12:23:44.687Z,20.71
2023-05-01T12:26:17.065Z,22.50
2023-05-01T12:28:56.224Z,23.39
2023-05-01T12:31:25.288Z,23.93
2023-05-01T12:33:54.842Z,25.02
2023-05-01T12:36:25.821Z,25.71
2023-05-01T12:39:00.725Z,26.88
2023-05-01T12:41:38.896Z,28.05
2023-05-01T12:44:25.125Z,28.49
2023-05-01T12:46:58.779Z,29.02
2023-05-01T12:49:27.945Z,28.27
2023-05-01T12:51:57.249Z,28.05
2023-05-01T12:54:26.355Z,29.79
2023-05-01T12:56:54.763Z,29.72
2023-05-01T12:59:25.513Z,30.54
2023-05-01T13:02:01.458Z,31.02
2023-05-01T13:04:32.654Z,28.81
2023-05-01T13:07:03.578Z,27.64
2023-05-01T13:09:32.629Z,26.70
2023-05-01T13:12:05.036Z,25.81
2023-05-01T13:14:39.115Z,26.20
2023-05-01T13:17:09.502Z,26.68
2023-05-01T13:19:58.582Z,26.13
2023-05-01T13:22:32.681Z,26.16
2023-05-01T13:25:03.226Z,26.87
2023-05-01T13:27:31.926Z,27.47
2023-05-01T13:30:04.026Z,28.74
2023-05-01T13:32:35.383Z,27.61
2023-05-01T13:35:04.645Z,27.09
2023-05-01T13:37:38.402Z,27.99
2023-05-01T13:40:08.494Z,28.61
2023-05-01T13:42:37.635Z,28.19
2023-05-01T13:45:08.351Z,28.27
2023-05-01T13:47:39.651Z,27.61
2023-05-01T13:50:10.406Z,28.03
2023-05-01T13:52:42.306Z,28.40
2023-05-01T13:55:11.706Z,29.12
2023-05-01T13:57:42.259Z,28.81
2023-05-01T14:00:19.517Z,28.75
2023-05-01T14:02:49.714Z,28.46
2023-05-01T14:05:24.397Z,28.71
2023-05-01T14:07:55.308Z,29.61
2023-05-01T14:10:45.761Z,29.99
2023-05-01T14:13:17.974Z,30.51
2023-05-01T14:15:49.430Z,32.47
2023-05-01T14:18:24.210Z,33.81
2023-05-01T14:21:00.156Z,35.15
2023-05-01T14:23:29.009Z,35.54
2023-05-01T14:25:59.127Z,36.66
2023-05-01T14:28:27.863Z,37.87
2023-05-01T14:30:58.152Z,39.74
2023-05-01T14:33:27.527Z,42.00
2023-05-01T14:35:56.774Z,45.24
2023-05-01T14:38:26.702Z,44.98
2023-05-01T14:40:55.662Z,46.87
2023-05-01T14:43:24.531Z,48.78
2023-05-01T14:45:53.490Z,49.49
2023-05-01T14:48:30.383Z,51.19
2023-05-01T14:50:59.470Z,50.49
2023-05-01T14:53:32.646Z,53.94
2023-05-01T14:56:01.494Z,51.50
2023-05-01T14:58:29.786Z,51.98
2023-05-01T15:00:58.539Z,52.12
2023-05-01T15:03:28.732Z,51.01
2023-05-01T15:06:00.877Z,49.76
2023-05-01T15:08:30.400Z,49.62
2023-05-01T15:10:59.011Z,46.50
2023-05-01T15:13:27.708Z,47.90
2023-05-01T15:15:57.376Z,48.13
2023-05-01T15:18:26.577Z,47.52
2023-05-01T15:20:57.987Z,48.04
2023-05-01T15:23:31.391Z,47.15
2023-05-01T15:26:00.934Z,47.18
2023-05-01T15:28:30.215Z,47.36
2023-05-01T15:30:58.788Z,48.54
2023-05-01T15:33:27.342Z,49.47
2023-05-01T15:36:08.204Z,48.64
2023-05-01T15:38:43.178Z,51.12
2023-05-01T15:41:18.312Z,53.65
2023-05-01T15:44:12.102Z,54.98
2023-05-01T15:46:47.412Z,56.52
2023-05-01T15:49:16.020Z,57.69
2023-05-01T15:51:45.733Z,57.87
2023-05-01T15:54:17.419Z,57.85
2023-05-01T15:56:46.650Z,57.18
2023-05-01T15:59:15.170Z,56.88
2023-05-01T16:01:43.676Z,56.27
2023-05-01T16:04:12.318Z,56.02
2023-05-01T16:06:42.037Z,54.97
2023-05-01T16:09:12.246Z,54.60
2023-05-01T16:11:40.587Z,53.50
2023-05-01T16:14:09.861Z,53.27
2023-05-01T16:16:39.733Z,53.43
2023-05-01T16:19:08.599Z,51.98
2023-05-01T16:21:37.914Z,52.03
2023-05-01T16:24:07.187Z,51.51
2023-05-01T16:26:36.958Z,51.90
2023-05-01T16:29:06.927Z,51.30
2023-05-01T16:31:53.882Z,50.85
2023-05-01T16:34:27.481Z,49.61
2023-05-01T16:36:56.482Z,49.87
2023-05-01T16:39:25.431Z,50.10
2023-05-01T16:42:01.962Z,49.85
2023-05-01T16:44:36.701Z,50.07
2023-05-01T16:47:11.760Z,48.59
2023-05-01T16:49:41.761Z,48.81
2023-05-01T16:52:14.220Z,47.48
2023-05-01T16:54:46.505Z,47.66
2023-05-01T16:57:17.465Z,47.83
2023-05-01T16:59:46.205Z,47.12
2023-05-01T17:02:14.851Z,47.87
2023-05-01T17:04:43.663Z,48.36
2023-05-01T17:07:14.778Z,48.22
2023-05-01T17:09:43.600Z,48.53
2023-05-01T17:12:13.226Z,49.13
2023-05-01T17:14:44.726Z,48.88
2023-05-01T17:17:17.753Z,49.27
2023-05-01T17:19:46.331Z,49.85
2023-05-01T17:22:15.159Z,49.47
2023-05-01T17:24:43.460Z,49.30
2023-05-01T17:27:12.328Z,50.05
2023-05-01T17:29:41.507Z,50.11
2023-05-01T17:32:16.022Z,50.37
2023-05-01T17:34:54.622Z,50.51
2023-05-01T17:37:22.815Z,50.87
2023-05-01T17:39:51.161Z,50.25
2023-05-01T17:42:19.692Z,50.35
2023-05-01T17:44:48.005Z,50.30
2023-05-01T17:47:18.090Z,50.37
2023-05-01T17:49:46.787Z,50.79
2023-05-01T17:52:16.025Z,50.83
2023-05-01T17:54:45.563Z,49.68
2023-05-01T17:57:14.076Z,50.13
2023-05-01T17:59:42.677Z,50.69
2023-05-01T18:02:11.311Z,51.71
2023-05-01T18:04:41.269Z,52.46
2023-05-01T18:07:09.789Z,52.64
2023-05-01T18:09:38.440Z,51.82
2023-05-01T18:12:07.097Z,51.83
2023-05-01T18:14:36.083Z,53.25
2023-05-01T18:17:04.519Z,53.35
2023-05-01T18:19:32.931Z,53.74
2023-05-01T18:22:04.142Z,54.30
2023-05-01T18:24:32.783Z,54.35
2023-05-01T18:27:01.051Z,54.59
2023-05-01T18:29:29.421Z,55.04
2023-05-01T18:31:58.415Z,54.90
2023-05-01T18:34:52.473Z,56.17
2023-05-01T18:37:23.155Z,55.58
2023-05-01T18:39:51.912Z,56.17
2023-05-01T18:42:41.366Z,57.37
2023-05-01T18:45:14.204Z,57.91
2023-05-01T18:47:45.543Z,58.30
2023-05-01T18:50:14.533Z,58.79
2023-05-01T18:52:44.226Z,58.82
2023-05-01T18:55:12.803Z,59.31
2023-05-01T18:57:43.642Z,59.98
2023-05-01T19:00:16.647Z,60.24
2023-05-01T19:02:51.299Z,60.81
2023-05-01T19:05:20.373Z,61.27
2023-05-01T19:07:50.213Z,61.91
2023-05-01T19:10:18.814Z,62.54
2023-05-01T19:12:47.194Z,63.10
2023-05-01T19:15:15.788Z,63.53
2023-05-01T19:17:44.195Z,63.72
2023-05-01T19:20:25.559Z,63.72
2023-05-01T19:22:55.381Z,63.71
2023-05-01T19:25:23.748Z,64.25
2023-05-01T19:27:52.056Z,63.98
2023-05-01T19:30:20.402Z,64.19
2023-05-01T19:32:48.848Z,64.19
2023-05-01T19:35:17.557Z,64.22
2023-05-01T19:37:46.130Z,64.10
2023-05-01T19:40:16.972Z,64.30
2023-05-01T19:42:46.753Z,64.49
2023-05-01T19:45:17.721Z,64.64
2023-05-01T19:47:46.673Z,65.06
2023-05-01T19:50:18.927Z,65.36
2023-05-01T19:52:48.110Z,65.86
2023-05-01T19:55:19.441Z,66.27
2023-05-01T19:57:47.925Z,66.34
2023-05-01T20:00:17.318Z,66.76
2023-05-01T20:02:47.774Z,65.89
2023-05-01T20:05:16.990Z,66.18
2023-05-01T20:07:49.379Z,67.05
2023-05-01T20:10:19.956Z,67.28
2023-05-01T20:12:49.125Z,67.80
2023-05-01T20:15:21.400Z,68.15
2023-05-01T20:17:51.130Z,68.49
2023-05-01T20:20:19.905Z,69.20
2023-05-01T20:22:48.546Z,69.45
2023-05-01T20:25:17.412Z,70.16
2023-05-01T20:27:47.571Z,71.18
2023-05-01T20:30:16.786Z,71.13
2023-05-01T20:32:45.572Z,71.18
2023-05-01T20:35:14.709Z,70.94
2023-05-01T20:37:44.266Z,71.27
2023-05-01T20:40:13.729Z,71.48
2023-05-01T20:42:42.953Z,71.47
2023-05-01T20:45:13.233Z,72.08
2023-05-01T20:47:42.009Z,71.94
2023-05-01T20:50:11.419Z,72.80
2023-05-01T20:52:40.375Z,73.63
2023-05-01T20:55:10.001Z,74.52
2023-05-01T20:57:38.321Z,74.52
2023-05-01T21:00:07.832Z,74.72
2023-05-01T21:02:39.409Z,75.59
2023-05-01T21:05:09.161Z,76.15
2023-05-01T21:07:38.437Z,76.46
2023-05-01T21:10:07.822Z,76.33
2023-05-01T21:12:36.669Z,76.13
2023-05-01T21:15:11.336Z,76.22
2023-05-01T21:17:43.527Z,75.50
2023-05-01T21:20:13.711Z,75.75
2023-05-01T21:22:45.788Z,76.10
2023-05-01T21:25:15.730Z,76.52
2023-05-01T21:27:44.574Z,76.87
2023-05-01T21:30:16.745Z,76.22
2023-05-01T21:32:47.480Z,76.15
2023-05-01T21:35:18.598Z,76.07
2023-05-01T21:37:51.551Z,76.59
2023-05-01T21:40:23.087Z,76.82
2023-05-01T21:42:52.586Z,76.51
2023-05-01T21:45:21.593Z,75.24
2023-05-01T21:47:55.226Z,75.21
2023-05-01T21:50:23.888Z,74.95
2023-05-01T21:52:52.564Z,74.81
2023-05-01T21:55:22.885Z,74.08
2023-05-01T21:57:51.508Z,74.88
2023-05-01T22:00:20.988Z,74.82
2023-05-01T22:02:51.749Z,74.61
2023-05-01T22:05:22.481Z,74.75
2023-05-01T22:07:54.516Z,75.07
2023-05-01T22:10:24.562Z,75.34
2023-05-01T22:12:55.558Z,76.15
2023-05-01T22:15:24.812Z,76.40
2023-05-01T22:17:54.916Z,76.53
2023-05-01T22:20:23.281Z,76.84
2023-05-01T22:22:51.618Z,77.43
2023-05-01T22:25:20.030Z,77.40
2023-05-01T22:27:48.322Z,77.65
2023-05-01T22:30:16.617Z,77.45
2023-05-01T22:32:44.918Z,76.99
2023-05-01T22:35:15.084Z,77.36
2023-05-01T22:37:43.688Z,76.95
2023-05-01T22:40:12.445Z,76.77
2023-05-01T22:42:41.236Z,76.31
2023-05-01T22:45:10.013Z,76.25
2023-05-01T22:47:38.565Z,76.07
2023-05-01T22:50:07.478Z,76.06
2023-05-01T22:52:37.438Z,76.11
2023-05-01T22:55:06.376Z,76.67
2023-05-01T22:57:34.662Z,76.91
2023-05-01T23:00:03.310Z,76.96
2023-05-01T23:02:33.691Z,77.13
2023-05-01T23:05:02.236Z,77.24
2023-05-01T23:07:30.723Z,77.11
2023-05-01T23:10:02.353Z,77.25
2023-05-01T23:12:31.580Z,76.87
2023-05-01T23:14:59.943Z,76.91
2023-05-01T23:17:34.630Z,76.99
2023-05-01T23:20:03.308Z,77.95
2023-05-01T23:22:31.990Z,77.67
2023-05-01T23:25:02.350Z,78.03
2023-05-01T23:27:34.531Z,77.96
2023-05-01T23:30:05.960Z,78.33
2023-05-01T23:32:34.672Z,78.15
2023-05-01T23:35:04.629Z,78.75
2023-05-01T23:37:33.047Z,79.63
2023-05-01T23:40:03.045Z,80.17
2023-05-01T23:42:31.825Z,81.41
2023-05-01T23:45:00.451Z,81.98
2023-05-01T23:47:28.830Z,83.02
2023-05-01T23:49:57.570Z,84.08
2023-05-01T23:52:26.318Z,84.12
2023-05-01T23:54:54.715Z,85.06
2023-05-01T23:57:24.806Z,85.98
2023-05-01T23:59:53.630Z,85.64
